sensor_id;sensor_type;location;lat;lon;timestamp;pressure;altitude;pressure_sealevel;temperature;humidity
6144;BME280;3103;49.492;8.474;2023-11-21T00:00:16;99853.19;;;10.58;100.00
6144;BME280;3103;49.492;8.474;2023-11-21T00:02:44;99856.81;;;10.74;100.00
6144;BME280;3103;49.492;8.474;2023-11-21T00:05:13;99846.00;;;10.69;100.00
6144;BME280;3103;49.492;8.474;2023-11-21T00:07:43;99846.78;;;10.64;100.00
6144;BME280;3103;49.492;8.474;2023-11-21T00:10:11;99846.44;;;10.56;100.00
6144;BME280;3103;49.492;8.474;2023-11-21T00:12:42;99846.75;;;10.59;100.00
6144;BME280;3103;49.492;8.474;2023-11-21T00:15:09;99850.94;;;10.50;100.00
6144;BME280;3103;49.492;8.474;2023-11-21T00:17:40;99844.47;;;10.46;100.00
6144;BME280;3103;49.492;8.474;2023-11-21T00:20:08;99840.81;;;10.30;100.00
6144;BME280;3103;49.492;8.474;2023-11-21T00:22:35;99842.31;;;10.48;100.00
6144;BME280;3103;49.492;8.474;2023-11-21T00:25:03;99842.16;;;10.33;100.00
6144;BME280;3103;49.492;8.474;2023-11-21T00:27:32;99842.75;;;10.40;100.00
6144;BME280;3103;49.492;8.474;2023-11-21T00:29:59;99839.59;;;10.43;100.00
6144;BME280;3103;49.492;8.474;2023-11-21T00:32:26;99835.34;;;10.47;100.00
6144;BME280;3103;49.492;8.474;2023-11-21T00:34:54;99840.66;;;10.42;100.00
6144;BME280;3103;49.492;8.474;2023-11-21T00:37:21;99838.22;;;10.40;100.00
6144;BME280;3103;49.492;8.474;2023-11-21T00:39:49;99829.34;;;10.40;100.00
6144;BME280;3103;49.492;8.474;2023-11-21T00:42:16;99833.91;;;10.39;100.00
6144;BME280;3103;49.492;8.474;2023-11-21T00:44:44;99824.78;;;10.40;100.00
6144;BME280;3103;49.492;8.474;2023-11-21T00:47:12;99828.84;;;10.43;100.00
6144;BME280;3103;49.492;8.474;2023-11-21T00:49:39;99834.47;;;10.42;100.00
6144;BME280;3103;49.492;8.474;2023-11-21T00:52:06;99832.50;;;10.32;100.00
6144;BME280;3103;49.492;8.474;2023-11-21T00:54:34;99833.09;;;10.39;100.00
6144;BME280;3103;49.492;8.474;2023-11-21T00:57:01;99823.63;;;10.31;100.00
6144;BME280;3103;49.492;8.474;2023-11-21T00:59:28;99825.59;;;10.19;100.00
6144;BME280;3103;49.492;8.474;2023-11-21T01:01:55;99833.59;;;10.36;100.00
6144;BME280;3103;49.492;8.474;2023-11-21T01:04:22;99832.38;;;10.22;100.00
6144;BME280;3103;49.492;8.474;2023-11-21T01:06:49;99830.50;;;10.00;100.00
6144;BME280;3103;49.492;8.474;2023-11-21T01:09:16;99839.75;;;10.31;100.00
6144;BME280;3103;49.492;8.474;2023-11-21T01:11:45;99841.56;;;10.53;100.00
6144;BME280;3103;49.492;8.474;2023-11-21T01:14:13;99840.25;;;10.55;100.00
6144;BME280;3103;49.492;8.474;2023-11-21T01:16:40;99847.06;;;10.41;100.00
6144;BME280;3103;49.492;8.474;2023-11-21T01:19:07;99851.41;;;10.42;100.00
6144;BME280;3103;49.492;8.474;2023-11-21T01:21:36;99849.97;;;10.34;100.00
6144;BME280;3103;49.492;8.474;2023-11-21T01:24:04;99847.69;;;10.48;100.00
6144;BME280;3103;49.492;8.474;2023-11-21T01:26:33;99852.44;;;10.41;100.00
6144;BME280;3103;49.492;8.474;2023-11-21T01:29:03;99855.47;;;10.23;100.00
6144;BME280;3103;49.492;8.474;2023-11-21T01:31:31;99852.34;;;10.31;100.00
6144;BME280;3103;49.492;8.474;2023-11-21T01:33:58;99849.84;;;10.24;100.00
6144;BME280;3103;49.492;8.474;2023-11-21T01:36:30;99850.63;;;10.47;100.00
6144;BME280;3103;49.492;8.474;2023-11-21T01:38:59;99852.38;;;10.58;100.00
6144;BME280;3103;49.492;8.474;2023-11-21T01:41:27;99846.53;;;10.39;100.00
6144;BME280;3103;49.492;8.474;2023-11-21T01:43:55;99849.19;;;10.61;100.00
6144;BME280;3103;49.492;8.474;2023-11-21T01:46:23;99842.31;;;10.48;100.00
6144;BME280;3103;49.492;8.474;2023-11-21T01:48:51;99848.56;;;10.54;100.00
6144;BME280;3103;49.492;8.474;2023-11-21T01:51:20;99850.34;;;10.43;100.00
6144;BME280;3103;49.492;8.474;2023-11-21T01:53:47;99847.19;;;10.51;100.00
6144;BME280;3103;49.492;8.474;2023-11-21T01:56:16;99847.69;;;10.48;100.00
6144;BME280;3103;49.492;8.474;2023-11-21T01:58:44;99854.09;;;10.42;100.00
6144;BME280;3103;49.492;8.474;2023-11-21T02:01:13;99853.28;;;10.42;100.00
6144;BME280;3103;49.492;8.474;2023-11-21T02:03:41;99852.44;;;10.41;100.00
6144;BME280;3103;49.492;8.474;2023-11-21T02:06:08;99848.22;;;10.45;100.00
6144;BME280;3103;49.492;8.474;2023-11-21T02:08:36;99845.78;;;10.44;100.00
6144;BME280;3103;49.492;8.474;2023-11-21T02:11:05;99844.16;;;10.43;100.00
6144;BME280;3103;49.492;8.474;2023-11-21T02:13:33;99840.81;;;10.30;100.00
6144;BME280;3103;49.492;8.474;2023-11-21T02:16:01;99837.56;;;10.28;100.00
6144;BME280;3103;49.492;8.474;2023-11-21T02:18:29;99847.53;;;10.33;100.00
6144;BME280;3103;49.492;8.474;2023-11-21T02:20:56;99852.66;;;10.34;100.00
6144;BME280;3103;49.492;8.474;2023-11-21T02:23:23;99850.72;;;10.30;100.00
6144;BME280;3103;49.492;8.474;2023-11-21T02:25:56;99845.28;;;10.25;100.00
6144;BME280;3103;49.492;8.474;2023-11-21T02:28:23;99855.47;;;10.23;100.00
6144;BME280;3103;49.492;8.474;2023-11-21T02:30:52;99852.34;;;10.31;100.00
6144;BME280;3103;49.492;8.474;2023-11-21T02:33:23;99850.19;;;10.28;100.00
6144;BME280;3103;49.492;8.474;2023-11-21T02:35:50;99855.09;;;10.36;100.00
6144;BME280;3103;49.492;8.474;2023-11-21T02:38:21;99841.63;;;10.31;100.00
6144;BME280;3103;49.492;8.474;2023-11-21T02:40:48;99858.28;;;10.33;100.00
6144;BME280;3103;49.492;8.474;2023-11-21T02:43:16;99847.25;;;10.29;100.00
6144;BME280;3103;49.492;8.474;2023-11-21T02:45:43;99843.75;;;10.29;100.00
6144;BME280;3103;49.492;8.474;2023-11-21T02:48:11;99845.34;;;10.30;100.00
6144;BME280;3103;49.492;8.474;2023-11-21T02:50:38;99845.66;;;10.33;100.00
6144;BME280;3103;49.492;8.474;2023-11-21T02:53:05;99839.75;;;10.31;100.00
6144;BME280;3103;49.492;8.474;2023-11-21T02:55:35;99844.63;;;10.39;100.00
6144;BME280;3103;49.492;8.474;2023-11-21T02:58:02;99851.59;;;10.35;100.00
6144;BME280;3103;49.492;8.474;2023-11-21T03:00:33;99848.13;;;10.40;100.00
6144;BME280;3103;49.492;8.474;2023-11-21T03:03:00;99841.47;;;10.43;100.00
6144;BME280;3103;49.492;8.474;2023-11-21T03:05:27;99836.53;;;10.34;100.00
6144;BME280;3103;49.492;8.474;2023-11-21T03:07:56;99837.34;;;10.35;100.00
6144;BME280;3103;49.492;8.474;2023-11-21T03:10:25;99843.91;;;10.22;100.00
6144;BME280;3103;49.492;8.474;2023-11-21T03:12:52;99849.03;;;10.24;100.00
6144;BME280;3103;49.492;8.474;2023-11-21T03:15:19;99845.72;;;10.17;100.00
6144;BME280;3103;49.492;8.474;2023-11-21T03:17:46;99838.59;;;10.27;100.00
6144;BME280;3103;49.492;8.474;2023-11-21T03:20:16;99850.19;;;10.28;100.00
6144;BME280;3103;49.492;8.474;2023-11-21T03:22:43;99846.44;;;10.29;100.00
6144;BME280;3103;49.492;8.474;2023-11-21T03:25:10;99843.09;;;10.22;100.00
6144;BME280;3103;49.492;8.474;2023-11-21T03:27:38;99843.78;;;10.34;100.00
6144;BME280;3103;49.492;8.474;2023-11-21T03:30:08;99857.38;;;10.27;100.00
6144;BME280;3103;49.492;8.474;2023-11-21T03:32:36;99850.91;;;10.23;100.00
6144;BME280;3103;49.492;8.474;2023-11-21T03:35:03;99849.59;;;10.26;100.00
6144;BME280;3103;49.492;8.474;2023-11-21T03:37:32;99853.25;;;10.20;100.00
6144;BME280;3103;49.492;8.474;2023-11-21T03:40:01;99862.38;;;10.19;100.00
6144;BME280;3103;49.492;8.474;2023-11-21T03:42:31;99852.41;;;10.14;100.00
6144;BME280;3103;49.492;8.474;2023-11-21T03:44:58;99853.44;;;10.13;100.00
6144;BME280;3103;49.492;8.474;2023-11-21T03:47:26;99858.16;;;10.23;100.00
6144;BME280;3103;49.492;8.474;2023-11-21T03:49:53;99857.56;;;10.21;100.00
6144;BME280;3103;49.492;8.474;2023-11-21T03:52:21;99859.78;;;10.24;100.00
6144;BME280;3103;49.492;8.474;2023-11-21T03:54:48;99862.28;;;10.30;100.00
6144;BME280;3103;49.492;8.474;2023-11-21T03:57:15;99864.16;;;10.30;100.00
6144;BME280;3103;49.492;8.474;2023-11-21T03:59:43;99863.09;;;10.31;100.00
6144;BME280;3103;49.492;8.474;2023-11-21T04:02:10;99868.63;;;10.24;100.00
6144;BME280;3103;49.492;8.474;2023-11-21T04:04:37;99862.94;;;10.21;100.00
6144;BME280;3103;49.492;8.474;2023-11-21T04:07:05;99870.94;;;10.16;100.00
6144;BME280;3103;49.492;8.474;2023-11-21T04:09:34;99865.69;;;10.26;100.00
6144;BME280;3103;49.492;8.474;2023-11-21T04:12:03;99867.75;;;10.40;100.00
6144;BME280;3103;49.492;8.474;2023-11-21T04:14:30;99869.41;;;10.42;100.00
6144;BME280;3103;49.492;8.474;2023-11-21T04:16:58;99872.66;;;10.22;100.00
6144;BME280;3103;49.492;8.474;2023-11-21T04:19:26;99860.25;;;10.21;100.00
6144;BME280;3103;49.492;8.474;2023-11-21T04:21:53;99874.50;;;10.43;100.00
6144;BME280;3103;49.492;8.474;2023-11-21T04:24:20;99872.13;;;10.47;100.00
6144;BME280;3103;49.492;8.474;2023-11-21T04:26:47;99866.13;;;10.18;100.00
6144;BME280;3103;49.492;8.474;2023-11-21T04:29:14;99884.38;;;10.16;100.00
6144;BME280;3103;49.492;8.474;2023-11-21T04:31:41;99889.78;;;10.21;100.00
6144;BME280;3103;49.492;8.474;2023-11-21T04:34:08;99893.69;;;10.13;100.00
6144;BME280;3103;49.492;8.474;2023-11-21T04:36:35;99892.97;;;10.18;100.00
6144;BME280;3103;49.492;8.474;2023-11-21T04:39:02;99892.00;;;10.24;100.00
6144;BME280;3103;49.492;8.474;2023-11-21T04:41:29;99897.91;;;10.48;100.00
6144;BME280;3103;49.492;8.474;2023-11-21T04:43:58;99900.69;;;10.31;100.00
6144;BME280;3103;49.492;8.474;2023-11-21T04:46:28;99900.34;;;10.27;100.00
6144;BME280;3103;49.492;8.474;2023-11-21T04:48:55;99909.97;;;10.45;100.00
6144;BME280;3103;49.492;8.474;2023-11-21T04:51:21;99905.50;;;10.29;100.00
6144;BME280;3103;49.492;8.474;2023-11-21T04:53:48;99909.72;;;10.25;100.00
6144;BME280;3103;49.492;8.474;2023-11-21T04:56:15;99911.47;;;10.58;100.00
6144;BME280;3103;49.492;8.474;2023-11-21T04:58:45;99914.63;;;10.77;100.00
6144;BME280;3103;49.492;8.474;2023-11-21T05:01:12;99911.31;;;10.69;100.00
6144;BME280;3103;49.492;8.474;2023-11-21T05:03:39;99918.88;;;10.73;100.00
6144;BME280;3103;49.492;8.474;2023-11-21T05:06:09;99912.31;;;10.63;100.00
6144;BME280;3103;49.492;8.474;2023-11-21T05:08:36;99923.28;;;10.57;100.00
6144;BME280;3103;49.492;8.474;2023-11-21T05:11:04;99925.34;;;10.50;100.00
6144;BME280;3103;49.492;8.474;2023-11-21T05:13:31;99925.03;;;10.46;100.00
6144;BME280;3103;49.492;8.474;2023-11-21T05:16:00;99927.75;;;10.51;100.00
6144;BME280;3103;49.492;8.474;2023-11-21T05:18:30;99926.41;;;10.49;100.00
6144;BME280;3103;49.492;8.474;2023-11-21T05:20:58;99927.25;;;10.54;100.00
6144;BME280;3103;49.492;8.474;2023-11-21T05:23:25;99931.22;;;10.47;100.00
6144;BME280;3103;49.492;8.474;2023-11-21T05:25:52;99937.66;;;10.46;100.00
6144;BME280;3103;49.492;8.474;2023-11-21T05:28:18;99943.66;;;10.31;100.00
6144;BME280;3103;49.492;8.474;2023-11-21T05:30:45;99951.19;;;10.34;100.00
6144;BME280;3103;49.492;8.474;2023-11-21T05:33:13;99947.59;;;10.45;100.00
6144;BME280;3103;49.492;8.474;2023-11-21T05:35:40;99953.00;;;10.50;100.00
6144;BME280;3103;49.492;8.474;2023-11-21T05:38:07;99956.44;;;10.46;100.00
6144;BME280;3103;49.492;8.474;2023-11-21T05:40:34;99960.69;;;10.42;100.00
6144;BME280;3103;49.492;8.474;2023-11-21T05:43:01;99972.25;;;10.42;100.00
6144;BME280;3103;49.492;8.474;2023-11-21T05:45:28;99965.38;;;10.29;100.00
6144;BME280;3103;49.492;8.474;2023-11-21T05:47:58;99968.31;;;10.28;100.00
6144;BME280;3103;49.492;8.474;2023-11-21T05:50:25;99974.56;;;10.33;100.00
6144;BME280;3103;49.492;8.474;2023-11-21T05:52:51;99968.00;;;10.46;100.00
6144;BME280;3103;49.492;8.474;2023-11-21T05:55:22;99973.56;;;10.61;100.00
6144;BME280;3103;49.492;8.474;2023-11-21T05:57:52;99979.16;;;10.38;100.00
6144;BME280;3103;49.492;8.474;2023-11-21T06:00:20;99979.16;;;10.38;100.00
6144;BME280;3103;49.492;8.474;2023-11-21T06:02:53;99982.59;;;10.33;100.00
6144;BME280;3103;49.492;8.474;2023-11-21T06:05:23;99984.34;;;10.23;100.00
6144;BME280;3103;49.492;8.474;2023-11-21T06:07:55;99995.06;;;10.23;100.00
6144;BME280;3103;49.492;8.474;2023-11-21T06:10:25;99990.09;;;10.31;100.00
6144;BME280;3103;49.492;8.474;2023-11-21T06:12:52;99998.81;;;10.22;100.00
6144;BME280;3103;49.492;8.474;2023-11-21T06:15:20;100002.16;;;10.29;100.00
6144;BME280;3103;49.492;8.474;2023-11-21T06:17:50;100002.28;;;10.39;100.00
6144;BME280;3103;49.492;8.474;2023-11-21T06:20:21;100003.41;;;10.43;100.00
6144;BME280;3103;49.492;8.474;2023-11-21T06:22:50;100010.97;;;10.46;100.00
6144;BME280;3103;49.492;8.474;2023-11-21T06:25:18;100007.22;;;10.47;100.00
6144;BME280;3103;49.492;8.474;2023-11-21T06:27:47;100009.16;;;10.52;100.00
6144;BME280;3103;49.492;8.474;2023-11-21T06:30:15;100018.38;;;10.39;100.00
6144;BME280;3103;49.492;8.474;2023-11-21T06:32:43;100010.06;;;10.40;100.00
6144;BME280;3103;49.492;8.474;2023-11-21T06:35:15;100017.47;;;10.50;100.00
6144;BME280;3103;49.492;8.474;2023-11-21T06:37:44;100028.72;;;10.47;100.00
6144;BME280;3103;49.492;8.474;2023-11-21T06:40:18;100027.59;;;10.43;100.00
6144;BME280;3103;49.492;8.474;2023-11-21T06:42:46;100035.97;;;10.47;100.00
6144;BME280;3103;49.492;8.474;2023-11-21T06:45:13;100039.97;;;10.44;100.00
6144;BME280;3103;49.492;8.474;2023-11-21T06:47:41;100039.75;;;10.51;100.00
6144;BME280;3103;49.492;8.474;2023-11-21T06:50:09;100043.72;;;10.43;100.00
6144;BME280;3103;49.492;8.474;2023-11-21T06:52:35;100055.00;;;10.45;100.00
6144;BME280;3103;49.492;8.474;2023-11-21T06:55:04;100053.53;;;10.37;100.00
6144;BME280;3103;49.492;8.474;2023-11-21T06:57:32;100056.22;;;10.37;100.00
6144;BME280;3103;49.492;8.474;2023-11-21T06:59:59;100064.69;;;10.46;100.00
6144;BME280;3103;49.492;8.474;2023-11-21T07:02:27;100057.59;;;10.57;100.00
6144;BME280;3103;49.492;8.474;2023-11-21T07:04:54;100066.72;;;10.56;100.00
6144;BME280;3103;49.492;8.474;2023-11-21T07:07:22;100068.25;;;10.52;100.00
6144;BME280;3103;49.492;8.474;2023-11-21T07:09:49;100067.13;;;10.48;100.00
6144;BME280;3103;49.492;8.474;2023-11-21T07:12:16;100073.09;;;10.33;100.00
6144;BME280;3103;49.492;8.474;2023-11-21T07:14:43;100069.50;;;10.44;100.00
6144;BME280;3103;49.492;8.474;2023-11-21T07:17:11;100070.44;;;10.55;100.00
6144;BME280;3103;49.492;8.474;2023-11-21T07:19:41;100079.00;;;10.52;100.00
6144;BME280;3103;49.492;8.474;2023-11-21T07:22:08;100087.63;;;10.54;100.00
6144;BME280;3103;49.492;8.474;2023-11-21T07:24:36;100091.91;;;10.55;100.00
6144;BME280;3103;49.492;8.474;2023-11-21T07:27:03;100094.69;;;10.60;100.00
6144;BME280;3103;49.492;8.474;2023-11-21T07:29:30;100100.31;;;10.58;100.00
6144;BME280;3103;49.492;8.474;2023-11-21T07:31:57;100102.19;;;10.58;100.00
6144;BME280;3103;49.492;8.474;2023-11-21T07:34:24;100104.53;;;10.54;100.00
6144;BME280;3103;49.492;8.474;2023-11-21T07:36:51;100099.50;;;10.58;100.00
6144;BME280;3103;49.492;8.474;2023-11-21T07:39:18;100107.31;;;10.59;100.00
6144;BME280;3103;49.492;8.474;2023-11-21T07:41:45;100105.00;;;10.68;100.00
6144;BME280;3103;49.492;8.474;2023-11-21T07:44:16;100110.31;;;10.63;100.00
6144;BME280;3103;49.492;8.474;2023-11-21T07:46:44;100119.25;;;10.68;100.00
6144;BME280;3103;49.492;8.474;2023-11-21T07:49:11;100118.44;;;10.68;100.00
6144;BME280;3103;49.492;8.474;2023-11-21T07:51:38;100119.03;;;10.70;100.00
6144;BME280;3103;49.492;8.474;2023-11-21T07:54:05;100127.56;;;10.67;100.00
6144;BME280;3103;49.492;8.474;2023-11-21T07:56:32;100122.94;;;10.62;100.00
6144;BME280;3103;49.492;8.474;2023-11-21T07:58:59;100125.94;;;10.66;100.00
6144;BME280;3103;49.492;8.474;2023-11-21T08:01:27;100129.13;;;10.63;100.00
6144;BME280;3103;49.492;8.474;2023-11-21T08:03:55;100115.78;;;10.51;100.00
6144;BME280;3103;49.492;8.474;2023-11-21T08:06:23;100119.78;;;10.49;100.00
6144;BME280;3103;49.492;8.474;2023-11-21T08:08:52;100123.13;;;10.56;100.00
6144;BME280;3103;49.492;8.474;2023-11-21T08:11:19;100130.50;;;10.65;100.00
6144;BME280;3103;49.492;8.474;2023-11-21T08:13:48;100134.00;;;10.66;100.00
6144;BME280;3103;49.492;8.474;2023-11-21T08:16:16;100137.66;;;10.77;100.00
6144;BME280;3103;49.492;8.474;2023-11-21T08:18:43;100138.16;;;10.74;100.00
6144;BME280;3103;49.492;8.474;2023-11-21T08:21:12;100149.47;;;10.76;100.00
6144;BME280;3103;49.492;8.474;2023-11-21T08:23:39;100153.72;;;10.72;100.00
6144;BME280;3103;49.492;8.474;2023-11-21T08:26:06;100154.44;;;10.67;100.00
6144;BME280;3103;49.492;8.474;2023-11-21T08:28:33;100156.88;;;10.68;100.00
6144;BME280;3103;49.492;8.474;2023-11-21T08:31:01;100155.19;;;10.62;100.00
6144;BME280;3103;49.492;8.474;2023-11-21T08:33:27;100161.69;;;10.66;100.00
6144;BME280;3103;49.492;8.474;2023-11-21T08:35:54;100166.41;;;10.59;100.00
6144;BME280;3103;49.492;8.474;2023-11-21T08:38:21;100166.25;;;10.66;100.00
6144;BME280;3103;49.492;8.474;2023-11-21T08:40:49;100169.72;;;10.66;100.00
6144;BME280;3103;49.492;8.474;2023-11-21T08:43:16;100172.50;;;10.55;100.00
6144;BME280;3103;49.492;8.474;2023-11-21T08:45:46;100174.72;;;10.58;100.00
6144;BME280;3103;49.492;8.474;2023-11-21T08:48:13;100183.97;;;10.67;100.00
6144;BME280;3103;49.492;8.474;2023-11-21T08:50:40;100179.91;;;10.64;100.00
6144;BME280;3103;49.492;8.474;2023-11-21T08:53:07;100194.41;;;10.63;100.00
6144;BME280;3103;49.492;8.474;2023-11-21T08:55:34;100189.59;;;10.65;100.00
6144;BME280;3103;49.492;8.474;2023-11-21T08:58:04;100197.03;;;10.58;100.00
6144;BME280;3103;49.492;8.474;2023-11-21T09:00:32;100195.72;;;10.61;100.00
6144;BME280;3103;49.492;8.474;2023-11-21T09:03:01;100200.84;;;10.62;100.00
6144;BME280;3103;49.492;8.474;2023-11-21T09:05:30;100201.66;;;10.63;100.00
6144;BME280;3103;49.492;8.474;2023-11-21T09:07:57;100206.03;;;10.69;100.00
6144;BME280;3103;49.492;8.474;2023-11-21T09:10:24;100201.47;;;10.69;100.00
6144;BME280;3103;49.492;8.474;2023-11-21T09:12:52;100210.38;;;10.70;100.00
6144;BME280;3103;49.492;8.474;2023-11-21T09:15:19;100206.38;;;10.73;100.00
6144;BME280;3103;49.492;8.474;2023-11-21T09:17:47;100215.06;;;10.80;100.00
6144;BME280;3103;49.492;8.474;2023-11-21T09:20:16;100214.56;;;10.83;100.00
6144;BME280;3103;49.492;8.474;2023-11-21T09:22:43;100223.31;;;10.90;100.00
6144;BME280;3103;49.492;8.474;2023-11-21T09:25:13;100216.88;;;10.74;100.00
6144;BME280;3103;49.492;8.474;2023-11-21T09:27:40;100227.38;;;10.76;100.00
6144;BME280;3103;49.492;8.474;2023-11-21T09:30:07;100227.47;;;10.81;100.00
6144;BME280;3103;49.492;8.474;2023-11-21T09:32:39;100236.06;;;10.83;100.00
6144;BME280;3103;49.492;8.474;2023-11-21T09:35:08;100235.28;;;10.82;100.00
6144;BME280;3103;49.492;8.474;2023-11-21T09:37:35;100246.44;;;10.91;100.00
6144;BME280;3103;49.492;8.474;2023-11-21T09:40:04;100246.38;;;10.86;100.00
6144;BME280;3103;49.492;8.474;2023-11-21T09:42:39;100256.69;;;10.94;100.00
6144;BME280;3103;49.492;8.474;2023-11-21T09:45:38;100249.13;;;10.91;100.00
6144;BME280;3103;49.492;8.474;2023-11-21T09:48:05;100247.19;;;10.86;100.00
6144;BME280;3103;49.492;8.474;2023-11-21T09:50:35;100255.16;;;10.98;100.00
6144;BME280;3103;49.492;8.474;2023-11-21T09:53:19;100264.09;;;11.04;100.00
6144;BME280;3103;49.492;8.474;2023-11-21T09:55:52;100267.03;;;11.02;100.00
6144;BME280;3103;49.492;8.474;2023-11-21T09:58:21;100264.59;;;11.00;100.00
6144;BME280;3103;49.492;8.474;2023-11-21T10:00:54;100274.84;;;11.04;100.00
6144;BME280;3103;49.492;8.474;2023-11-21T10:03:23;100280.63;;;11.12;100.00
6144;BME280;3103;49.492;8.474;2023-11-21T10:05:50;100265.88;;;11.15;100.00
6144;BME280;3103;49.492;8.474;2023-11-21T10:08:19;100278.25;;;11.16;100.00
6144;BME280;3103;49.492;8.474;2023-11-21T10:10:53;100280.94;;;11.16;100.00
6144;BME280;3103;49.492;8.474;2023-11-21T10:13:20;100277.69;;;11.14;100.00
6144;BME280;3103;49.492;8.474;2023-11-21T10:15:51;100279.38;;;11.20;100.00
6144;BME280;3103;49.492;8.474;2023-11-21T10:18:20;100277.94;;;11.12;100.00
6144;BME280;3103;49.492;8.474;2023-11-21T10:20:49;100279.88;;;11.17;100.00
6144;BME280;3103;49.492;8.474;2023-11-21T10:23:21;100277.00;;;11.23;100.00
6144;BME280;3103;49.492;8.474;2023-11-21T10:25:54;100277.94;;;11.12;100.00
6144;BME280;3103;49.492;8.474;2023-11-21T10:28:37;100280.78;;;11.06;100.00
6144;BME280;3103;49.492;8.474;2023-11-21T10:31:07;100280.03;;;11.10;100.00
6144;BME280;3103;49.492;8.474;2023-11-21T10:33:34;100280.28;;;11.09;100.00
6144;BME280;3103;49.492;8.474;2023-11-21T10:36:02;100282.72;;;11.10;100.00
6144;BME280;3103;49.492;8.474;2023-11-21T10:38:33;100283.31;;;11.12;100.00
6144;BME280;3103;49.492;8.474;2023-11-21T10:41:11;100286.56;;;10.97;100.00
6144;BME280;3103;49.492;8.474;2023-11-21T10:43:43;100290.97;;;11.04;100.00
6144;BME280;3103;49.492;8.474;2023-11-21T10:46:11;100280.97;;;10.99;100.00
6144;BME280;3103;49.492;8.474;2023-11-21T10:48:41;100289.84;;;10.99;100.00
6144;BME280;3103;49.492;8.474;2023-11-21T10:51:08;100298.72;;;11.00;100.00
6144;BME280;3103;49.492;8.474;2023-11-21T10:53:42;100306.13;;;10.93;100.00
6144;BME280;3103;49.492;8.474;2023-11-21T10:56:14;100303.28;;;10.99;100.00
6144;BME280;3103;49.492;8.474;2023-11-21T10:58:46;100306.13;;;10.93;100.00
6144;BME280;3103;49.492;8.474;2023-11-21T11:01:17;100303.28;;;10.99;100.00
6144;BME280;3103;49.492;8.474;2023-11-21T11:03:46;100301.81;;;10.92;100.00
6144;BME280;3103;49.492;8.474;2023-11-21T11:06:14;100310.38;;;10.89;100.00
6144;BME280;3103;49.492;8.474;2023-11-21T11:08:41;100307.25;;;10.80;100.00
6144;BME280;3103;49.492;8.474;2023-11-21T11:11:09;100306.06;;;10.88;100.00
6144;BME280;3103;49.492;8.474;2023-11-21T11:13:37;100306.13;;;10.93;100.00
6144;BME280;3103;49.492;8.474;2023-11-21T11:16:05;100299.44;;;10.95;100.00
6144;BME280;3103;49.492;8.474;2023-11-21T11:18:34;100309.38;;;10.95;100.00
6144;BME280;3103;49.492;8.474;2023-11-21T11:21:58;100313.31;;;11.04;100.00
6144;BME280;3103;49.492;8.474;2023-11-21T11:27:25;100308.09;;;11.14;100.00
6144;BME280;3103;49.492;8.474;2023-11-21T11:30:34;100302.16;;;11.12;100.00
6144;BME280;3103;49.492;8.474;2023-11-21T11:36:01;100307.91;;;11.21;100.00
6144;BME280;3103;49.492;8.474;2023-11-21T11:38:33;100301.22;;;11.23;100.00
6144;BME280;3103;49.492;8.474;2023-11-21T11:41:04;100295.84;;;11.23;100.00
6144;BME280;3103;49.492;8.474;2023-11-21T11:43:32;100308.69;;;11.38;100.00
6144;BME280;3103;49.492;8.474;2023-11-21T11:46:02;100313.69;;;11.29;100.00
6144;BME280;3103;49.492;8.474;2023-11-21T11:48:37;100311.16;;;11.23;100.00
6144;BME280;3103;49.492;8.474;2023-11-21T11:51:11;100303.53;;;11.15;100.00
6144;BME280;3103;49.492;8.474;2023-11-21T11:53:41;100309.84;;;11.25;100.00
6144;BME280;3103;49.492;8.474;2023-11-21T11:56:21;100316.28;;;11.24;100.00
6144;BME280;3103;49.492;8.474;2023-11-21T11:58:50;100320.84;;;11.41;100.00
6144;BME280;3103;49.492;8.474;2023-11-21T12:01:22;100324.72;;;11.50;100.00
6144;BME280;3103;49.492;8.474;2023-11-21T12:06:54;100319.66;;;11.53;96.91
6144;BME280;3103;49.492;8.474;2023-11-21T12:09:23;100319.03;;;11.46;97.34
6144;BME280;3103;49.492;8.474;2023-11-21T12:11:51;100327.41;;;11.50;96.90
6144;BME280;3103;49.492;8.474;2023-11-21T12:14:18;100324.81;;;11.55;95.74
6144;BME280;3103;49.492;8.474;2023-11-21T12:16:45;100328.66;;;11.42;94.54
6144;BME280;3103;49.492;8.474;2023-11-21T12:19:12;100331.16;;;11.49;94.75
6144;BME280;3103;49.492;8.474;2023-11-21T12:21:40;100328.41;;;11.44;94.29
6144;BME280;3103;49.492;8.474;2023-11-21T12:24:11;100331.66;;;11.46;94.52
6144;BME280;3103;49.492;8.474;2023-11-21T12:26:41;100331.81;;;11.56;94.56
6144;BME280;3103;49.492;8.474;2023-11-21T12:29:09;100337.00;;;11.63;94.98
6144;BME280;3103;49.492;8.474;2023-11-21T12:31:39;100333.56;;;11.67;94.09
6144;BME280;3103;49.492;8.474;2023-11-21T12:34:07;100337.00;;;11.79;94.61
6144;BME280;3103;49.492;8.474;2023-11-21T12:36:38;100335.34;;;11.78;93.46
6144;BME280;3103;49.492;8.474;2023-11-21T12:39:06;100339.44;;;11.81;93.00
6144;BME280;3103;49.492;8.474;2023-11-21T12:41:36;100342.03;;;11.76;92.98
6144;BME280;3103;49.492;8.474;2023-11-21T12:44:03;100338.94;;;11.67;92.81
6144;BME280;3103;49.492;8.474;2023-11-21T12:46:30;100339.84;;;11.73;92.43
6144;BME280;3103;49.492;8.474;2023-11-21T12:49:00;100349.25;;;11.70;92.46
6144;BME280;3103;49.492;8.474;2023-11-21T12:51:28;100351.47;;;11.78;91.53
6144;BME280;3103;49.492;8.474;2023-11-21T12:53:55;100356.00;;;11.73;91.43
6144;BME280;3103;49.492;8.474;2023-11-21T12:56:22;100358.88;;;11.83;91.10
6144;BME280;3103;49.492;8.474;2023-11-21T12:58:53;100357.72;;;11.79;90.01
6144;BME280;3103;49.492;8.474;2023-11-21T13:01:20;100358.75;;;11.78;89.46
6144;BME280;3103;49.492;8.474;2023-11-21T13:03:50;100365.53;;;11.80;89.83
6144;BME280;3103;49.492;8.474;2023-11-21T13:06:18;100364.94;;;11.78;88.78
6144;BME280;3103;49.492;8.474;2023-11-21T13:08:46;100358.75;;;11.78;88.73
6144;BME280;3103;49.492;8.474;2023-11-21T13:11:14;100355.25;;;11.77;87.26
6144;BME280;3103;49.492;8.474;2023-11-21T13:13:42;100357.53;;;11.85;87.23
6144;BME280;3103;49.492;8.474;2023-11-21T13:16:10;100368.25;;;12.02;91.36
6144;BME280;3103;49.492;8.474;2023-11-21T13:18:38;100361.69;;;12.15;91.81
6144;BME280;3103;49.492;8.474;2023-11-21T13:21:08;100376.81;;;12.21;91.73
6144;BME280;3103;49.492;8.474;2023-11-21T13:23:43;100377.47;;;12.28;91.83